Time;durP1;ratioP1;P1;durP2;ratioP2;P2;SDS_P1;SDS_P2;PMS_P1;PMS_P2;Temp;Humidity;BMP_temperature;BMP_pressure;BME280_temperature;BME280_humidity;BME280_pressure;Samples;Min_cycle;Max_cycle;Signal;HPM_P1;HPM_P2
2021/04/18 00:02:20;;;;;;;12.98;10.52;;;11.60;51.00;;;;;;5094519;28;20071;-68
2021/04/18 00:04:46;;;;;;;14.32;9.88;;;11.50;51.40;;;;;;5094784;28;20429;-69
2021/04/18 00:07:12;;;;;;;11.38;9.73;;;11.50;51.90;;;;;;5094656;28;20361;-70
2021/04/18 00:09:38;;;;;;;11.57;9.35;;;;;;;;;;5094598;28;20035;-70
2021/04/18 00:12:05;;;;;;;14.35;9.10;;;11.60;52.40;;;;;;5094352;28;20034;-69
2021/04/18 00:14:30;;;;;;;11.85;9.00;;;11.50;52.30;;;;;;5094141;28;20058;-69
2021/04/18 00:16:56;;;;;;;10.90;9.27;;;11.50;52.70;;;;;;5094342;28;20067;-69
2021/04/18 00:19:22;;;;;;;12.10;9.60;;;11.50;51.70;;;;;;5094254;28;20027;-69
2021/04/18 00:21:48;;;;;;;10.98;9.80;;;11.50;50.90;;;;;;5092385;28;20028;-70
2021/04/18 00:24:15;;;;;;;13.10;9.50;;;11.50;51.80;;;;;;5091913;28;20036;-70
2021/04/18 00:26:40;;;;;;;10.65;9.13;;;11.60;51.30;;;;;;5092956;28;20027;-70
2021/04/18 00:29:06;;;;;;;10.95;9.38;;;11.50;51.30;;;;;;5092355;28;20024;-70
2021/04/18 00:31:32;;;;;;;12.55;9.00;;;11.60;52.00;;;;;;5093765;28;20027;-69
2021/04/18 00:33:58;;;;;;;10.05;8.80;;;11.50;52.30;;;;;;5093282;28;20051;-70
2021/04/18 00:36:24;;;;;;;19.33;10.13;;;11.50;52.70;;;;;;5092066;28;20392;-70
2021/04/18 00:38:50;;;;;;;12.35;9.20;;;11.50;52.10;;;;;;5093754;28;20114;-70
2021/04/18 00:41:16;;;;;;;15.63;9.52;;;11.40;52.00;;;;;;5092614;28;20024;-70
2021/04/18 00:43:43;;;;;;;11.85;8.52;;;11.40;53.50;;;;;;5092849;28;20392;-70
2021/04/18 00:46:10;;;;;;;11.95;9.18;;;11.40;53.50;;;;;;5092395;28;20434;-70
2021/04/18 00:48:43;;;;;;;10.00;8.60;;;11.40;53.50;;;;;;5092328;28;20092;-70
2021/04/18 00:51:11;;;;;;;9.60;8.60;;;11.40;53.30;;;;;;5092734;28;20052;-70
2021/04/18 00:53:37;;;;;;;11.77;8.02;;;11.40;53.30;;;;;;5092854;28;20055;-70
2021/04/18 00:56:04;;;;;;;11.80;8.80;;;11.40;53.40;;;;;;5091704;28;20028;-70
2021/04/18 00:58:30;;;;;;;14.35;8.70;;;11.40;53.40;;;;;;5089816;28;20028;-70
2021/04/18 01:00:55;;;;;;;10.88;8.55;;;11.30;52.70;;;;;;5089364;28;20038;-70
2021/04/18 01:03:21;;;;;;;10.38;8.18;;;11.30;53.00;;;;;;5089478;28;20040;-70
2021/04/18 01:05:47;;;;;;;11.07;8.85;;;11.30;53.60;;;;;;5092816;28;20081;-70
2021/04/18 01:08:13;;;;;;;14.23;9.07;;;11.30;53.70;;;;;;5093147;28;20042;-69
2021/04/18 01:10:40;;;;;;;10.82;8.35;;;11.30;54.10;;;;;;5093108;28;20103;-70
2021/04/18 01:13:05;;;;;;;8.90;7.85;;;11.30;53.40;;;;;;5093051;28;20593;-69
2021/04/18 01:15:31;;;;;;;11.07;8.45;;;11.20;53.40;;;;;;5093492;28;20124;-69
2021/04/18 01:17:57;;;;;;;12.73;8.70;;;11.20;53.10;;;;;;5093431;28;20385;-69
2021/04/18 01:20:24;;;;;;;11.95;8.80;;;11.20;54.40;;;;;;5093138;28;20154;-69
2021/04/18 01:22:51;;;;;;;16.30;8.55;;;11.20;54.80;;;;;;5093101;28;20040;-69
2021/04/18 01:25:18;;;;;;;16.23;8.07;;;11.10;55.70;;;;;;5093073;28;20028;-69
2021/04/18 01:27:46;;;;;;;13.48;8.95;;;11.10;54.70;;;;;;5092770;28;20032;-69
2021/04/18 01:30:24;;;;;;;11.60;8.88;;;11.10;54.90;;;;;;5092868;28;20028;-69
2021/04/18 01:32:53;;;;;;;11.40;9.18;;;11.00;54.50;;;;;;5091254;28;20495;-70
2021/04/18 01:35:19;;;;;;;9.50;8.13;;;11.00;53.80;;;;;;5091615;28;20031;-69
2021/04/18 01:37:45;;;;;;;12.07;9.02;;;10.90;54.90;;;;;;5091889;28;20046;-70
2021/04/18 01:40:18;;;;;;;10.40;9.30;;;10.90;55.50;;;;;;5091416;28;20032;-69
2021/04/18 01:42:44;;;;;;;13.55;8.35;;;10.80;55.00;;;;;;5091330;28;20119;-70
2021/04/18 01:45:12;;;;;;;10.53;8.17;;;10.80;55.50;;;;;;5091963;28;20024;-70
2021/04/18 01:47:38;;;;;;;12.40;9.05;;;10.80;55.70;;;;;;5091636;28;20032;-69
2021/04/18 01:50:06;;;;;;;13.07;7.85;;;10.80;55.30;;;;;;5090872;28;20036;-70
2021/04/18 01:52:32;;;;;;;10.93;7.72;;;10.80;55.10;;;;;;5091767;28;20495;-70
2021/04/18 01:54:58;;;;;;;10.75;8.23;;;10.80;55.10;;;;;;5091730;28;20032;-69
2021/04/18 01:57:24;;;;;;;12.50;8.35;;;10.80;55.20;;;;;;5091978;28;20024;-69
2021/04/18 01:59:49;;;;;;;11.75;8.65;;;10.80;55.50;;;;;;5090918;28;20032;-70
2021/04/18 02:02:15;;;;;;;10.03;8.53;;;10.70;55.40;;;;;;5092526;28;20112;-70
2021/04/18 02:04:41;;;;;;;13.70;8.57;;;10.70;55.20;;;;;;5092754;28;20028;-70
2021/04/18 02:07:07;;;;;;;10.30;7.90;;;10.70;55.10;;;;;;5092964;28;20020;-70
2021/04/18 02:09:35;;;;;;;14.53;9.10;;;10.70;55.30;;;;;;5092894;28;20426;-70
2021/04/18 02:12:06;;;;;;;11.35;8.93;;;10.60;55.20;;;;;;5092587;28;20028;-70
2021/04/18 02:14:34;;;;;;;11.50;8.40;;;10.60;55.70;;;;;;5092824;28;20020;-69
2021/04/18 02:17:00;;;;;;;10.47;8.43;;;10.60;55.40;;;;;;5092786;28;20107;-70
2021/04/18 02:19:26;;;;;;;9.67;8.47;;;10.60;55.00;;;;;;5074645;28;20028;-70
2021/04/18 02:21:52;;;;;;;11.90;8.93;;;10.50;55.10;;;;;;5095277;28;20388;-69
2021/04/18 02:24:18;;;;;;;10.43;8.33;;;10.50;55.60;;;;;;5096488;28;20389;-70
2021/04/18 02:26:43;;;;;;;13.30;7.63;;;10.50;56.20;;;;;;5095901;28;20099;-69
2021/04/18 02:29:09;;;;;;;13.57;9.00;;;10.50;55.70;;;;;;5096156;28;20024;-70
2021/04/18 02:31:35;;;;;;;15.10;9.13;;;10.40;55.70;;;;;;5096382;28;20081;-69
2021/04/18 02:34:01;;;;;;;11.40;8.00;;;10.30;55.20;;;;;;5096311;28;20074;-69
2021/04/18 02:36:26;;;;;;;10.37;8.50;;;10.30;55.10;;;;;;5095290;28;20034;-70
2021/04/18 02:38:52;;;;;;;11.03;7.83;;;10.40;54.20;;;;;;5094398;28;20044;-69
2021/04/18 02:41:18;;;;;;;11.17;8.40;;;10.40;54.70;;;;;;5096160;28;20028;-69
2021/04/18 02:43:44;;;;;;;10.50;7.93;;;10.40;54.40;;;;;;5096132;28;20515;-70
2021/04/18 02:46:10;;;;;;;13.53;8.20;;;10.50;53.90;;;;;;5096194;28;20077;-70
2021/04/18 02:48:36;;;;;;;9.77;8.13;;;10.50;54.60;;;;;;5095428;28;20024;-70
2021/04/18 02:51:01;;;;;;;11.07;8.20;;;10.50;54.10;;;;;;5094739;28;20048;-69
2021/04/18 02:53:27;;;;;;;10.95;8.90;;;10.50;54.70;;;;;;5095063;28;20028;-69
2021/04/18 02:55:53;;;;;;;11.67;8.73;;;10.50;56.00;;;;;;5094753;28;20477;-69
2021/04/18 02:58:19;;;;;;;10.70;8.23;;;10.50;55.20;;;;;;5093886;28;20024;-70
2021/04/18 03:00:45;;;;;;;13.10;8.80;;;10.40;56.30;;;;;;5094797;28;20051;-70
2021/04/18 03:03:10;;;;;;;12.33;8.73;;;10.40;55.90;;;;;;5095026;28;20480;-70
2021/04/18 03:05:36;;;;;;;12.53;9.27;;;10.40;56.40;;;;;;5093963;28;20134;-70
2021/04/18 03:08:02;;;;;;;10.50;9.17;;;10.40;56.80;;;;;;5094675;28;20482;-69
2021/04/18 03:10:28;;;;;;;13.77;9.68;;;10.30;57.20;;;;;;5094379;28;20024;-69
2021/04/18 03:12:57;;;;;;;11.33;9.07;;;10.30;57.00;;;;;;5095669;28;20034;-70
2021/04/18 03:15:23;;;;;;;11.70;8.70;;;10.30;57.10;;;;;;5095579;28;20016;-70
2021/04/18 03:17:50;;;;;;;10.77;8.77;;;10.30;57.40;;;;;;5095037;28;20059;-70
2021/04/18 03:20:16;;;;;;;14.43;9.23;;;10.30;56.20;;;;;;5093299;28;20049;-69
2021/04/18 03:22:42;;;;;;;16.17;8.87;;;10.20;56.70;;;;;;5094088;28;20040;-69
2021/04/18 03:25:09;;;;;;;10.37;9.27;;;10.20;58.20;;;;;;5094228;28;20023;-69
2021/04/18 03:27:34;;;;;;;13.80;9.17;;;10.20;58.00;;;;;;5093645;28;20028;-69
2021/04/18 03:30:00;;;;;;;10.90;8.97;;;10.10;57.60;;;;;;5093399;28;20046;-70
2021/04/18 03:32:26;;;;;;;12.60;9.07;;;10.10;57.50;;;;;;5093949;28;20024;-69
2021/04/18 03:34:52;;;;;;;14.67;9.03;;;10.00;57.60;;;;;;5094780;28;20035;-69
2021/04/18 03:37:18;;;;;;;12.53;10.07;;;10.00;57.70;;;;;;5095298;28;20055;-69
2021/04/18 03:39:44;;;;;;;10.23;8.80;;;10.00;58.70;;;;;;5095242;28;20365;-69
2021/04/18 03:42:10;;;;;;;11.83;8.67;;;10.00;58.50;;;;;;5095016;28;20028;-69
2021/04/18 03:44:36;;;;;;;13.03;8.67;;;10.00;59.20;;;;;;5094861;28;20106;-69
2021/04/18 03:47:02;;;;;;;14.20;9.63;;;10.00;58.80;;;;;;5095013;28;20055;-70
2021/04/18 03:49:28;;;;;;;9.90;8.40;;;10.00;58.30;;;;;;5095042;28;20028;-69
2021/04/18 03:51:53;;;;;;;19.27;9.17;;;10.00;58.00;;;;;;5094627;28;20101;-69
2021/04/18 03:54:21;;;;;;;13.30;9.30;;;9.90;58.10;;;;;;5094254;28;20397;-69
2021/04/18 03:56:50;;;;;;;16.47;9.10;;;9.90;58.90;;;;;;5094262;28;20047;-69
2021/04/18 03:59:16;;;;;;;12.83;8.73;;;9.90;58.90;;;;;;5093109;28;20536;-70
2021/04/18 04:01:42;;;;;;;12.07;9.07;;;9.90;58.70;;;;;;5093978;28;20020;-69
2021/04/18 04:04:09;;;;;;;16.07;8.63;;;9.90;59.20;;;;;;5093520;28;20032;-70
2021/04/18 04:06:34;;;;;;;9.83;8.37;;;9.80;58.60;;;;;;5094570;28;20021;-69
2021/04/18 04:09:01;;;;;;;15.87;9.80;;;9.80;57.30;;;;;;5093125;28;20035;-70
2021/04/18 04:11:26;;;;;;;12.20;8.60;;;9.80;58.60;;;;;;5092374;28;20496;-70
2021/04/18 04:13:52;;;;;;;11.73;9.13;;;9.80;59.00;;;;;;5092719;28;20020;-70
2021/04/18 04:16:18;;;;;;;10.37;9.07;;;9.80;58.10;;;;;;5093292;28;20035;-69
2021/04/18 04:18:43;;;;;;;22.17;8.97;;;9.80;58.10;;;;;;5093140;28;20024;-69
2021/04/18 04:21:09;;;;;;;9.77;8.67;;;9.80;58.30;;;;;;5092084;28;20016;-69
2021/04/18 04:23:35;;;;;;;14.97;8.30;;;9.80;58.20;;;;;;5093841;28;20032;-69
2021/04/18 04:26:03;;;;;;;9.70;7.97;;;9.80;58.20;;;;;;5094033;28;20077;-69
2021/04/18 04:28:28;;;;;;;11.17;8.33;;;9.80;58.10;;;;;;5093009;28;20488;-69
2021/04/18 04:30:54;;;;;;;11.07;8.47;;;9.80;58.00;;;;;;5092548;28;20016;-69
2021/04/18 04:33:20;;;;;;;9.87;8.27;;;9.80;57.80;;;;;;5092831;28;20030;-69
2021/04/18 04:35:45;;;;;;;11.80;9.00;;;9.80;57.80;;;;;;5094103;28;20049;-69
2021/04/18 04:38:11;;;;;;;10.27;7.90;;;9.80;57.90;;;;;;5093871;28;20160;-70
2021/04/18 04:40:37;;;;;;;10.03;8.37;;;9.80;57.50;;;;;;5093124;28;20055;-69
2021/04/18 04:43:03;;;;;;;10.27;8.50;;;9.80;57.10;;;;;;5092664;28;20453;-69
2021/04/18 04:45:28;;;;;;;11.03;8.37;;;9.80;57.70;;;;;;5092555;28;20030;-70
2021/04/18 04:47:54;;;;;;;10.37;7.80;;;9.80;58.10;;;;;;5092052;28;20380;-71
2021/04/18 04:50:20;;;;;;;16.97;8.93;;;9.80;58.20;;;;;;5091909;28;20397;-71
2021/04/18 04:52:47;;;;;;;11.27;8.10;;;9.70;58.50;;;;;;5092333;28;20031;-71
2021/04/18 04:55:13;;;;;;;11.30;8.67;;;9.80;58.40;;;;;;5092098;28;20028;-71
2021/04/18 04:57:39;;;;;;;12.20;8.50;;;9.80;58.60;;;;;;5091888;28;20028;-70
2021/04/18 05:00:06;;;;;;;11.00;8.67;;;9.70;59.50;;;;;;5092886;28;20021;-71
2021/04/18 05:02:31;;;;;;;11.13;8.83;;;9.80;58.80;;;;;;5093516;28;20028;-70
2021/04/18 05:04:57;;;;;;;11.37;8.83;;;9.80;59.30;;;;;;5093526;28;20020;-71
2021/04/18 05:07:23;;;;;;;12.63;8.33;;;9.80;59.50;;;;;;5093716;28;20443;-71
2021/04/18 05:09:49;;;;;;;12.30;9.43;;;9.80;58.80;;;;;;5092211;28;20438;-71
2021/04/18 05:12:15;;;;;;;10.67;9.00;;;9.90;58.70;;;;;;5091967;28;20377;-70
2021/04/18 05:14:41;;;;;;;11.00;8.40;;;9.90;58.30;;;;;;5091607;28;20023;-70
2021/04/18 05:17:07;;;;;;;10.67;9.17;;;9.90;58.10;;;;;;5092566;28;20095;-71
2021/04/18 05:19:33;;;;;;;14.13;8.93;;;9.90;58.20;;;;;;5091575;28;20107;-71
2021/04/18 05:21:59;;;;;;;11.23;8.43;;;9.90;58.90;;;;;;5093324;28;20038;-71
2021/04/18 05:24:25;;;;;;;10.70;8.33;;;10.00;58.90;;;;;;5093146;28;20028;-71
2021/04/18 05:26:50;;;;;;;9.83;8.83;;;10.00;59.80;;;;;;5092867;28;20081;-71
2021/04/18 05:29:18;;;;;;;12.17;8.20;;;10.00;60.20;;;;;;5091520;28;20020;-70
2021/04/18 05:31:44;;;;;;;13.90;8.93;;;10.00;60.30;;;;;;5093016;28;20016;-69
2021/04/18 05:34:09;;;;;;;9.70;8.63;;;10.00;60.00;;;;;;5092952;28;20024;-70
2021/04/18 05:36:35;;;;;;;11.53;8.70;;;10.10;60.00;;;;;;5091385;28;20380;-70
2021/04/18 05:39:01;;;;;;;12.40;9.33;;;10.20;59.00;;;;;;5073827;28;20537;-70
2021/04/18 05:41:27;;;;;;;10.97;8.80;;;10.20;57.50;;;;;;5092076;28;20097;-70
2021/04/18 05:43:53;;;;;;;11.80;8.73;;;10.20;58.00;;;;;;5091316;28;20090;-71
2021/04/18 05:46:18;;;;;;;11.93;8.80;;;10.30;58.10;;;;;;5092332;28;20017;-70
2021/04/18 05:48:44;;;;;;;10.45;8.13;;;10.30;59.10;;;;;;5091914;28;20028;-70
2021/04/18 05:51:10;;;;;;;13.07;8.23;;;10.40;60.30;;;;;;5091928;28;20484;-70
2021/04/18 05:53:36;;;;;;;10.57;8.03;;;10.40;59.40;;;;;;5093015;28;20413;-70
2021/04/18 05:56:01;;;;;;;12.27;8.20;;;10.40;60.40;;;;;;5095595;28;20070;-70
2021/04/18 05:58:27;;;;;;;12.27;8.50;;;10.40;59.70;;;;;;5097021;28;20024;-70
2021/04/18 06:00:53;;;;;;;9.60;8.37;;;10.40;59.80;;;;;;5096570;28;20028;-70
2021/04/18 06:03:18;;;;;;;13.00;8.57;;;10.40;60.40;;;;;;5096233;28;20457;-70
2021/04/18 06:05:44;;;;;;;9.87;8.27;;;10.50;59.90;;;;;;5096688;28;20422;-70
2021/04/18 06:08:10;;;;;;;11.93;8.37;;;10.50;59.40;;;;;;5097223;28;20028;-70
2021/04/18 06:10:36;;;;;;;12.27;8.77;;;10.50;58.80;;;;;;5096909;28;20035;-70
2021/04/18 06:13:01;;;;;;;11.23;8.80;;;10.50;60.40;;;;;;5096494;28;20024;-70
2021/04/18 06:15:28;;;;;;;11.55;8.07;;;10.50;60.30;;;;;;5096720;28;20024;-71
2021/04/18 06:17:53;;;;;;;12.20;9.02;;;10.50;60.90;;;;;;5096944;28;20664;-70
2021/04/18 06:20:19;;;;;;;11.50;9.37;;;10.40;60.90;;;;;;5096466;28;20024;-70
2021/04/18 06:22:45;;;;;;;11.17;8.93;;;10.40;61.60;;;;;;5092677;28;20036;-70
2021/04/18 06:25:14;;;;;;;11.53;9.30;;;10.40;61.10;;;;;;5093368;28;20032;-67
2021/04/18 06:27:40;;;;;;;12.00;8.83;;;10.50;60.70;;;;;;5076627;28;20027;-67
2021/04/18 06:30:07;;;;;;;11.73;8.63;;;10.50;60.30;;;;;;5095173;28;20484;-68
2021/04/18 06:32:32;;;;;;;10.00;8.77;;;10.50;59.70;;;;;;5095175;28;20485;-71
2021/04/18 06:34:58;;;;;;;11.40;8.85;;;10.60;58.90;;;;;;5094483;28;20038;-71
2021/04/18 06:37:24;;;;;;;9.77;7.95;;;10.60;58.50;;;;;;5094553;28;20035;-71
2021/04/18 06:39:50;;;;;;;11.33;8.43;;;10.60;59.70;;;;;;5094893;28;20035;-70
2021/04/18 06:42:17;;;;;;;11.73;8.73;;;10.60;60.30;;;;;;5096011;28;20031;-68
2021/04/18 06:44:44;;;;;;;10.25;8.15;;;10.70;60.30;;;;;;5095484;28;20024;-67
2021/04/18 06:47:10;;;;;;;12.82;8.40;;;10.80;60.10;;;;;;5096176;28;20055;-67
2021/04/18 06:49:38;;;;;;;13.73;8.63;;;10.80;59.70;;;;;;5095144;28;20024;-69
2021/04/18 06:52:06;;;;;;;10.70;8.05;;;10.90;61.10;;;;;;5093379;28;20697;-67
2021/04/18 06:54:32;;;;;;;10.45;8.77;;;10.90;62.00;;;;;;5093252;28;20093;-69
2021/04/18 06:56:57;;;;;;;9.55;8.43;;;10.90;60.00;;;;;;5093876;28;20414;-68
2021/04/18 06:59:23;;;;;;;11.20;9.13;;;10.90;58.50;;;;;;5093342;28;20036;-69
2021/04/18 07:01:49;;;;;;;12.65;9.02;;;11.00;58.20;;;;;;5092800;28;20043;-68
2021/04/18 07:04:16;;;;;;;11.35;8.90;;;11.10;58.40;;;;;;5094945;28;20052;-69
2021/04/18 07:06:53;;;;;;;14.70;8.10;;;11.10;58.40;;;;;;5093939;28;20024;-68
2021/04/18 07:09:22;;;;;;;15.50;7.78;;;11.10;57.50;;;;;;5076436;28;20115;-69
2021/04/18 07:12:00;;;;;;;12.43;8.68;;;11.20;57.10;;;;;;5094017;28;20038;-69
2021/04/18 07:14:33;;;;;;;12.25;8.05;;;11.30;55.70;;;;;;5094676;28;20044;-68
2021/04/18 07:17:10;;;;;;;12.65;8.25;;;11.40;56.10;;;;;;5095244;28;20027;-71
2021/04/18 07:19:49;;;;;;;10.07;8.02;;;11.40;55.90;;;;;;5094085;28;20038;-66
2021/04/18 07:22:25;;;;;;;12.32;8.25;;;11.50;55.60;;;;;;5095126;28;20089;-67
2021/04/18 07:24:56;;;;;;;11.13;7.68;;;11.60;56.30;;;;;;5094897;28;20028;-67
2021/04/18 07:27:22;;;;;;;8.50;7.45;;;11.60;55.60;;;;;;5095122;28;20073;-66
2021/04/18 07:29:56;;;;;;;9.13;7.05;;;11.70;54.80;;;;;;5094356;28;20534;-67
2021/04/18 07:32:24;;;;;;;8.93;7.65;;;11.70;54.90;;;;;;5095332;28;20023;-68
2021/04/18 07:34:50;;;;;;;8.23;6.93;;;11.80;55.10;;;;;;5094942;28;20028;-65
2021/04/18 07:37:18;;;;;;;10.13;7.35;;;11.80;54.70;;;;;;5094565;28;20452;-65
2021/04/18 07:39:44;;;;;;;10.68;7.40;;;11.90;55.20;;;;;;5094585;28;20016;-65
2021/04/18 07:42:25;;;;;;;9.77;7.35;;;11.90;55.40;;;;;;5094834;28;20028;-65
2021/04/18 07:44:54;;;;;;;10.50;7.45;;;12.00;55.50;;;;;;5095191;28;20055;-66
2021/04/18 07:47:20;;;;;;;13.93;7.28;;;12.10;55.00;;;;;;5094794;28;20027;-67
2021/04/18 07:49:46;;;;;;;12.18;6.78;;;12.20;55.10;;;;;;5093832;28;20028;-67
2021/04/18 07:52:12;;;;;;;8.27;6.38;;;12.20;53.40;;;;;;5093015;28;20017;-67
2021/04/18 07:54:39;;;;;;;10.73;6.30;;;12.30;53.90;;;;;;5093146;28;20024;-68
2021/04/18 07:57:05;;;;;;;7.57;5.95;;;12.30;54.20;;;;;;5093633;28;20516;-68
2021/04/18 07:59:32;;;;;;;9.18;6.53;;;12.40;54.20;;;;;;5094507;28;20020;-67
2021/04/18 08:01:58;;;;;;;7.63;6.22;;;12.50;53.50;;;;;;5094259;28;20141;-67
2021/04/18 08:04:24;;;;;;;6.75;6.05;;;12.60;52.40;;;;;;5094170;28;20377;-68
2021/04/18 08:06:50;;;;;;;8.88;6.28;;;12.70;52.50;;;;;;5094367;28;20060;-67
2021/04/18 08:09:21;;;;;;;10.45;6.88;;;12.70;52.00;;;;;;5093473;28;20038;-68
2021/04/18 08:12:22;;;;;;;6.63;5.75;;;12.70;51.40;;;;;;5092250;28;20427;-72
2021/04/18 08:15:12;;;;;;;8.52;5.60;;;12.80;49.70;;;;;;5013602;28;20517;-71
2021/04/18 08:18:11;;;;;;;9.85;5.55;;;12.80;48.90;;;;;;5110874;28;20063;-69
2021/04/18 08:20:43;;;;;;;9.27;6.55;;;12.80;49.60;;;;;;5113714;28;20051;-68
2021/04/18 08:23:13;;;;;;;7.15;5.53;;;12.90;49.50;;;;;;5074708;28;20123;-71
2021/04/18 08:26:12;;;;;;;7.93;5.80;;;12.90;49.00;;;;;;5018953;28;20478;-71
2021/04/18 08:29:07;;;;;;;8.82;5.60;;;13.00;48.60;;;;;;5013700;28;20617;-65
2021/04/18 08:32:07;;;;;;;7.80;5.40;;;13.00;49.60;;;;;;5012024;28;20034;-66
2021/04/18 08:34:39;;;;;;;7.72;5.90;;;13.10;49.40;;;;;;5009844;28;20469;-68
2021/04/18 08:37:14;;;;;;;8.30;5.85;;;13.20;49.20;;;;;;5011457;28;20037;-68
2021/04/18 08:39:41;;;;;;;7.90;5.68;;;13.20;50.00;;;;;;5013265;28;20030;-66
2021/04/18 08:42:09;;;;;;;7.47;6.15;;;13.20;48.00;;;;;;5013911;28;20397;-67
2021/04/18 08:44:37;;;;;;;13.05;6.22;;;13.20;47.80;;;;;;5013793;28;20032;-66
2021/04/18 08:47:04;;;;;;;8.48;5.80;;;13.10;47.90;;;;;;5013771;28;20485;-66
2021/04/18 08:49:46;;;;;;;13.48;6.32;;;13.10;47.10;;;;;;5013443;28;20575;-68
2021/04/18 08:52:27;;;;;;;9.63;6.15;;;13.10;48.90;;;;;;5012550;28;20512;-66
2021/04/18 08:54:55;;;;;;;10.00;6.35;;;13.10;50.20;;;;;;5012568;28;20037;-66
2021/04/18 08:57:26;;;;;;;11.85;6.63;;;13.20;50.10;;;;;;5013315;28;20029;-66
2021/04/18 08:59:57;;;;;;;7.85;6.07;;;13.20;49.70;;;;;;5010471;28;20026;-66
2021/04/18 09:02:25;;;;;;;10.82;5.28;;;13.30;48.70;;;;;;5011071;28;20057;-68
2021/04/18 09:04:54;;;;;;;7.47;6.00;;;13.40;48.30;;;;;;5011626;28;20383;-67
2021/04/18 09:07:24;;;;;;;8.80;6.13;;;13.40;46.90;;;;;;5013269;28;20026;-66
2021/04/18 09:09:51;;;;;;;7.25;6.13;;;13.30;46.10;;;;;;5013143;28;20482;-66
2021/04/18 09:12:18;;;;;;;6.00;5.40;;;13.30;47.10;;;;;;5013101;28;20056;-66
2021/04/18 09:14:46;;;;;;;13.05;5.65;;;13.30;47.30;;;;;;5013092;28;20030;-66
2021/04/18 09:17:17;;;;;;;6.85;5.82;;;13.30;47.50;;;;;;5013287;28;20029;-66
2021/04/18 09:19:50;;;;;;;7.65;5.95;;;13.30;46.10;;;;;;5013554;28;20037;-67
2021/04/18 09:22:34;;;;;;;10.20;5.22;;;13.30;46.60;;;;;;5013310;28;20018;-67
2021/04/18 09:25:07;;;;;;;9.07;5.68;;;13.30;46.70;;;;;;5013174;28;20498;-64
2021/04/18 09:27:40;;;;;;;8.52;5.90;;;13.30;45.60;;;;;;5012815;28;20481;-64
2021/04/18 09:30:09;;;;;;;8.23;5.63;;;13.30;46.10;;;;;;5012982;28;20034;-64
2021/04/18 09:32:34;;;;;;;6.80;5.95;;;13.30;45.90;;;;;;5013288;28;20029;-63
2021/04/18 09:35:01;;;;;;;8.57;5.95;;;13.20;45.70;;;;;;5013259;28;20026;-64
2021/04/18 09:37:36;;;;;;;9.60;5.82;;;13.20;45.90;;;;;;5013530;28;20022;-63
2021/04/18 09:40:04;;;;;;;6.50;5.45;;;13.20;45.40;;;;;;5013412;28;20056;-63
2021/04/18 09:42:34;;;;;;;6.82;6.07;;;13.20;45.30;;;;;;5013461;28;20037;-63
2021/04/18 09:45:12;;;;;;;7.25;5.93;;;13.20;44.50;;;;;;5013042;28;20037;-63
2021/04/18 09:47:40;;;;;;;6.47;5.47;;;13.30;45.30;;;;;;5013066;28;20572;-63
2021/04/18 09:50:23;;;;;;;7.45;5.60;;;13.20;45.70;;;;;;5013112;28;20042;-64
2021/04/18 09:52:50;;;;;;;7.90;5.45;;;13.30;45.90;;;;;;5013518;28;20054;-63
2021/04/18 09:55:25;;;;;;;7.60;5.55;;;13.30;46.20;;;;;;5013180;28;20021;-64
2021/04/18 09:57:53;;;;;;;7.53;5.82;;;13.30;46.10;;;;;;5013097;28;20037;-63
2021/04/18 10:00:31;;;;;;;7.95;5.78;;;13.40;44.20;;;;;;5013121;28;20096;-63
2021/04/18 10:03:07;;;;;;;7.40;5.70;;;13.40;45.50;;;;;;5013179;28;20057;-63
2021/04/18 10:05:56;;;;;;;7.43;6.10;;;13.40;45.30;;;;;;5013076;28;20080;-63
2021/04/18 10:08:26;;;;;;;6.97;5.30;;;13.40;45.70;;;;;;5012855;28;20045;-63
2021/04/18 10:10:58;;;;;;;7.40;5.55;;;13.50;44.60;;;;;;5012935;28;20022;-63
2021/04/18 10:13:46;;;;;;;7.28;5.53;;;13.40;45.00;;;;;;5013074;28;20038;-63
2021/04/18 10:16:13;;;;;;;8.25;6.18;;;13.50;45.00;;;;;;5012986;28;20470;-63
2021/04/18 10:19:17;;;;;;;6.18;5.53;;;13.50;44.80;;;;;;5013094;28;20113;-63
2021/04/18 10:21:47;;;;;;;9.00;5.80;;;13.50;45.20;;;;;;5013185;28;20061;-64
2021/04/18 10:24:43;;;;;;;8.63;6.03;;;13.40;44.30;;;;;;5012930;28;20061;-63
2021/04/18 10:27:14;;;;;;;6.22;5.15;;;13.40;44.70;;;;;;5012998;28;20030;-64
2021/04/18 10:29:42;;;;;;;6.63;5.55;;;13.50;45.30;;;;;;5012916;28;20030;-63
2021/04/18 10:32:10;;;;;;;8.48;5.90;;;13.50;43.90;;;;;;5012879;28;20441;-64
2021/04/18 10:34:36;;;;;;;7.25;5.75;;;13.50;44.70;;;;;;5013086;28;20474;-63
2021/04/18 10:37:03;;;;;;;5.78;5.18;;;13.50;44.70;;;;;;5012994;28;20033;-63
2021/04/18 10:39:29;;;;;;;6.80;5.88;;;13.50;45.00;;;;;;5012436;28;20499;-64
2021/04/18 10:41:56;;;;;;;7.43;5.47;;;13.50;44.40;;;;;;5013649;28;20412;-64
2021/04/18 10:44:22;;;;;;;6.32;5.15;;;13.40;44.80;;;;;;5016615;28;20381;-64
2021/04/18 10:46:52;;;;;;;6.90;5.63;;;13.40;45.20;;;;;;5016357;28;20037;-63
2021/04/18 10:49:18;;;;;;;7.25;5.60;;;13.40;44.90;;;;;;5016289;28;20080;-63
2021/04/18 10:51:45;;;;;;;6.90;5.30;;;13.40;45.00;;;;;;5016122;28;20482;-63
2021/04/18 10:54:11;;;;;;;6.95;5.55;;;13.40;45.10;;;;;;5016246;28;20042;-63
2021/04/18 10:56:37;;;;;;;7.35;6.00;;;13.30;45.30;;;;;;5016299;28;20029;-64
2021/04/18 10:59:03;;;;;;;8.55;5.53;;;13.30;45.40;;;;;;5013492;28;20034;-65
2021/04/18 11:01:29;;;;;;;6.05;5.13;;;13.30;45.70;;;;;;5012833;28;20033;-64
2021/04/18 11:03:55;;;;;;;7.50;5.68;;;13.30;46.30;;;;;;5013549;28;20040;-64
2021/04/18 11:06:22;;;;;;;7.72;5.20;;;13.20;45.50;;;;;;5015195;28;20109;-64
2021/04/18 11:08:47;;;;;;;8.18;5.35;;;13.20;45.70;;;;;;5013840;28;20372;-64
2021/04/18 11:11:13;;;;;;;7.05;5.57;;;13.20;45.70;;;;;;5014463;28;20448;-64
2021/04/18 11:13:39;;;;;;;6.90;5.35;;;13.20;45.00;;;;;;5014923;28;20084;-64
2021/04/18 11:16:06;;;;;;;7.07;5.60;;;13.10;45.80;;;;;;5015132;28;20036;-64
2021/04/18 11:18:33;;;;;;;7.45;5.25;;;13.10;45.20;;;;;;5012592;28;20490;-64
2021/04/18 11:20:59;;;;;;;9.63;5.85;;;13.00;45.60;;;;;;5012587;28;20038;-64
2021/04/18 11:23:25;;;;;;;7.05;5.47;;;13.00;46.50;;;;;;5012821;28;20453;-64
2021/04/18 11:25:50;;;;;;;8.40;5.28;;;13.10;47.30;;;;;;5012961;28;20029;-64
2021/04/18 11:28:16;;;;;;;7.53;5.68;;;13.10;47.50;;;;;;5012623;28;20431;-64
2021/04/18 11:30:42;;;;;;;7.20;5.50;;;13.10;48.10;;;;;;5014647;28;20152;-64
2021/04/18 11:33:07;;;;;;;7.68;5.57;;;13.20;47.80;;;;;;5015302;28;20026;-70
2021/04/18 11:35:33;;;;;;;8.70;6.25;;;13.20;47.20;;;;;;5015195;28;20034;-64
2021/04/18 11:38:00;;;;;;;9.65;5.60;;;13.20;46.80;;;;;;5015078;28;20033;-64
2021/04/18 11:40:27;;;;;;;6.72;5.70;;;13.20;47.00;;;;;;5014919;28;20042;-64
2021/04/18 11:42:53;;;;;;;8.73;5.72;;;13.20;46.60;;;;;;5015210;28;20060;-64
2021/04/18 11:45:20;;;;;;;7.68;6.18;;;13.30;47.00;;;;;;5015126;28;20026;-64
2021/04/18 11:47:46;;;;;;;9.02;6.10;;;13.30;47.60;;;;;;5014459;28;20095;-64
2021/04/18 11:50:13;;;;;;;18.25;13.15;;;13.40;50.10;;;;;;5014755;28;20057;-64
2021/04/18 11:52:39;;;;;;;14.15;9.35;;;13.40;50.70;;;;;;5014291;28;20052;-64
2021/04/18 11:55:10;;;;;;;28.70;19.40;;;13.40;49.50;;;;;;5014525;28;20065;-65
2021/04/18 11:57:37;;;;;;;15.95;11.88;;;13.40;49.80;;;;;;5014939;28;20026;-63
2021/04/18 12:00:07;;;;;;;8.60;7.20;;;13.40;50.30;;;;;;5014894;28;20030;-64
2021/04/18 12:02:33;;;;;;;11.73;6.93;;;13.40;50.50;;;;;;5014301;28;20032;-64
2021/04/18 12:04:59;;;;;;;10.70;6.07;;;13.40;48.90;;;;;;5014834;28;20033;-64
2021/04/18 12:07:25;;;;;;;26.42;15.38;;;13.50;48.60;;;;;;5014735;28;20026;-64
2021/04/18 12:09:51;;;;;;;22.98;16.55;;;13.50;48.50;;;;;;5014358;28;20084;-64
2021/04/18 12:12:17;;;;;;;8.43;6.45;;;13.60;46.50;;;;;;5014495;28;20068;-63
2021/04/18 12:14:43;;;;;;;18.83;12.15;;;13.70;46.90;;;;;;5014553;28;20125;-64
2021/04/18 12:17:09;;;;;;;34.33;24.63;;;13.80;47.10;;;;;;5013126;28;20088;-64
2021/04/18 12:19:34;;;;;;;10.38;7.88;;;13.80;46.60;;;;;;5014488;28;20029;-64
2021/04/18 12:22:01;;;;;;;7.65;6.78;;;13.80;46.10;;;;;;5014707;28;20429;-64
2021/04/18 12:24:27;;;;;;;6.32;5.65;;;13.90;47.30;;;;;;5013815;28;20075;-63
2021/04/18 12:26:52;;;;;;;7.90;5.72;;;13.90;46.00;;;;;;5014329;28;20538;-64
2021/04/18 12:29:18;;;;;;;7.20;5.60;;;14.00;47.20;;;;;;5012442;28;20033;-64
2021/04/18 12:31:44;;;;;;;8.35;6.10;;;14.10;47.90;;;;;;5012481;28;20068;-66
2021/04/18 12:34:09;;;;;;;10.00;5.72;;;14.20;48.50;;;;;;5013906;28;20121;-65
2021/04/18 12:36:36;;;;;;;8.07;5.65;;;14.30;49.30;;;;;;5013825;28;20037;-65
2021/04/18 12:39:07;;;;;;;6.72;5.63;;;14.30;48.40;;;;;;5013814;28;20030;-65
2021/04/18 12:41:33;;;;;;;8.10;5.63;;;14.30;47.10;;;;;;5013691;28;20080;-67
2021/04/18 12:43:58;;;;;;;11.65;6.78;;;14.30;45.30;;;;;;5013758;28;20029;-69
2021/04/18 12:46:24;;;;;;;14.38;8.65;;;14.30;45.00;;;;;;5013521;28;20022;-64